Time;durP1;ratioP1;P1;durP2;ratioP2;P2;SDS_P1;SDS_P2;PMS_P1;PMS_P2;Temp;Humidity;BMP_temperature;BMP_pressure;BME280_temperature;BME280_humidity;BME280_pressure;Samples;Min_cycle;Max_cycle;Signal;HPM_P1;HPM_P2
2021/12/07 00:00:56;;;;;;;21.75;10.82;;;;;;;;;;5054374;28;20025;-41
2021/12/07 00:03:21;;;;;;;20.92;11.40;;;;;;;;;;5053400;28;20555;-39
2021/12/07 00:05:48;;;;;;;19.10;11.07;;;;;;;;;;5054642;28;20440;-39
2021/12/07 00:08:14;;;;;;;20.67;10.38;;;;;;;;;;5054232;28;20485;-39
2021/12/07 00:10:41;;;;;;;22.85;10.63;;;;;;;;;;5054549;28;20029;-44
2021/12/07 00:13:09;;;;;;;17.65;10.98;;;;;;;;;;5054497;28;20477;-42
2021/12/07 00:15:36;;;;;;;21.92;11.05;;;;;;;;;;5054036;28;20057;-41
2021/12/07 00:18:03;;;;;;;18.88;10.88;;;;;;;;;;5054165;28;20029;-40
2021/12/07 00:20:28;;;;;;;23.00;11.27;;;;;;;;;;5052851;28;20020;-44
2021/12/07 00:22:57;;;;;;;18.50;10.77;;;;;;;;;;5052784;28;20096;-42
2021/12/07 00:25:23;;;;;;;19.38;10.52;;;;;;;;;;5053202;28;20075;-41
2021/12/07 00:27:50;;;;;;;21.48;10.98;;;;;;;;;;5054334;28;20056;-43
2021/12/07 00:30:16;;;;;;;18.92;10.68;;;;;;;;;;5054218;28;20021;-45
2021/12/07 00:32:50;;;;;;;22.52;11.02;;;;;;;;;;5054204;28;20017;-42
2021/12/07 00:35:34;;;;;;;21.77;11.15;;;;;;;;;;5054150;28;20044;-45
2021/12/07 00:38:03;;;;;;;23.17;10.48;;;;;;;;;;5053882;28;20029;-45
2021/12/07 00:40:29;;;;;;;21.25;10.55;;;;;;;;;;5053802;28;20025;-43
2021/12/07 00:42:55;;;;;;;20.60;10.63;;;;;;;;;;5053950;28;20029;-45
2021/12/07 00:45:22;;;;;;;20.30;10.80;;;;;;;;;;5053671;28;20504;-40
2021/12/07 00:47:50;;;;;;;22.58;10.38;;;;;;;;;;5053636;28;20039;-39
2021/12/07 00:50:17;;;;;;;20.92;10.82;;;;;;;;;;5053572;28;20036;-41
2021/12/07 00:52:42;;;;;;;21.20;10.82;;;;;;;;;;5053588;28;20382;-40
2021/12/07 00:55:15;;;;;;;22.95;11.15;;;;;;;;;;5053729;28;20074;-40
2021/12/07 00:57:41;;;;;;;18.75;10.60;;;;;;;;;;5053459;28;20025;-40
2021/12/07 01:00:13;;;;;;;19.48;10.15;;;;;;;;;;5053379;28;20028;-40
2021/12/07 01:02:39;;;;;;;18.60;10.20;;;;;;;;;;5053565;28;20021;-40
2021/12/07 01:05:13;;;;;;;20.95;10.82;;;;;;;;;;5053626;28;20028;-39
2021/12/07 01:26:25;;;;;;;20.98;10.13;;;;;;;;;;5053233;28;20032;-40
2021/12/07 01:28:51;;;;;;;24.02;10.70;;;;;;;;;;5053111;28;20033;-40
2021/12/07 01:31:27;;;;;;;22.90;11.43;;;;;;;;;;5052737;28;20021;-40
2021/12/07 01:36:43;;;;;;;18.63;10.55;;;;;;;;;;5052680;28;20087;-40
2021/12/07 01:50:14;;;;;;;21.90;11.20;;;;;;;;;;5052818;28;20021;-40
2021/12/07 02:00:24;;;;;;;21.27;11.05;;;;;;;;;;5052463;28;20099;-41
2021/12/07 02:02:50;;;;;;;20.05;10.50;;;;;;;;;;5052707;28;20033;-40
2021/12/07 02:05:16;;;;;;;21.95;11.38;;;;;;;;;;5052266;28;20375;-40
2021/12/07 02:07:41;;;;;;;18.48;10.98;;;;;;;;;;5052583;28;20402;-41
2021/12/07 02:10:14;;;;;;;23.38;11.90;;;;;;;;;;5052566;28;20040;-43
2021/12/07 02:12:48;;;;;;;23.58;11.85;;;;;;;;;;5034504;28;20049;-44
2021/12/07 02:15:21;;;;;;;22.95;11.30;;;;;;;;;;5035792;28;20064;-42
2021/12/07 02:17:49;;;;;;;21.88;10.90;;;;;;;;;;5052183;28;20052;-41
2021/12/07 02:20:16;;;;;;;19.83;11.43;;;;;;;;;;5052466;28;20379;-40
2021/12/07 02:22:42;;;;;;;22.45;11.50;;;;;;;;;;5052127;28;20046;-39
2021/12/07 02:25:10;;;;;;;21.77;11.35;;;;;;;;;;5034677;28;20021;-44
2021/12/07 02:27:36;;;;;;;19.52;10.75;;;;;;;;;;5055752;28;20056;-44
2021/12/07 02:30:05;;;;;;;21.65;10.88;;;;;;;;;;5056345;28;20041;-43
2021/12/07 02:32:31;;;;;;;23.58;11.85;;;;;;;;;;5056255;28;20024;-41
2021/12/07 02:35:00;;;;;;;23.45;11.13;;;;;;;;;;5055927;28;20041;-43
2021/12/07 02:37:29;;;;;;;22.42;11.30;;;;;;;;;;5056436;28;20040;-44
2021/12/07 02:39:56;;;;;;;22.30;11.73;;;;;;;;;;5056246;28;20386;-42
2021/12/07 02:42:24;;;;;;;21.88;11.52;;;;;;;;;;5056028;28;20481;-42
2021/12/07 02:44:49;;;;;;;21.33;11.73;;;;;;;;;;5056305;28;20024;-41
2021/12/07 02:47:15;;;;;;;22.83;11.13;;;;;;;;;;5056228;28;20489;-42
2021/12/07 02:49:41;;;;;;;26.55;12.48;;;;;;;;;;5055795;28;20075;-41
2021/12/07 02:52:07;;;;;;;23.98;12.15;;;;;;;;;;5055728;28;20021;-44
2021/12/07 02:54:34;;;;;;;23.48;12.38;;;;;;;;;;5055654;28;20099;-42
2021/12/07 02:57:01;;;;;;;21.63;11.48;;;;;;;;;;5055947;28;20423;-40
2021/12/07 02:59:27;;;;;;;22.20;12.70;;;;;;;;;;5055880;28;20436;-42
2021/12/07 03:02:04;;;;;;;27.83;12.88;;;;;;;;;;5055611;28;20075;-40
2021/12/07 03:04:43;;;;;;;27.33;13.00;;;;;;;;;;5055669;28;20592;-41
2021/12/07 03:07:31;;;;;;;27.25;11.70;;;;;;;;;;5055895;28;20053;-40
2021/12/07 03:25:51;;;;;;;27.73;14.15;;;;;;;;;;5055000;28;20104;-40
2021/12/07 03:26:28;;;;;;;27.92;14.25;;;;;;;;;;5055552;28;20401;-41
2021/12/07 03:28:57;;;;;;;28.48;13.65;;;;;;;;;;5055120;28;20025;-42
2021/12/07 03:31:25;;;;;;;30.67;14.40;;;;;;;;;;5054963;28;20512;-41
2021/12/07 03:33:53;;;;;;;24.35;13.77;;;;;;;;;;5054994;28;20106;-41
2021/12/07 03:36:19;;;;;;;25.45;13.13;;;;;;;;;;5055276;28;20033;-42
2021/12/07 03:38:45;;;;;;;24.83;12.52;;;;;;;;;;5054698;28;20021;-42
2021/12/07 03:41:11;;;;;;;28.75;13.95;;;;;;;;;;5055246;28;20040;-44
2021/12/07 03:43:38;;;;;;;29.73;13.68;;;;;;;;;;5055178;28;20051;-45
2021/12/07 03:46:04;;;;;;;28.17;13.02;;;;;;;;;;5055073;28;20082;-40
2021/12/07 03:48:30;;;;;;;28.88;14.07;;;;;;;;;;5037321;28;20029;-41
2021/12/07 03:50:55;;;;;;;25.25;13.68;;;;;;;;;;5054993;28;20378;-40
2021/12/07 03:53:21;;;;;;;23.52;13.27;;;;;;;;;;5036914;28;20025;-41
2021/12/07 03:55:47;;;;;;;26.38;13.68;;;;;;;;;;5054837;28;20466;-41
2021/12/07 03:58:13;;;;;;;25.60;14.23;;;;;;;;;;5054863;28;20083;-42
2021/12/07 04:00:42;;;;;;;23.92;12.65;;;;;;;;;;5054579;28;20060;-41
2021/12/07 04:03:11;;;;;;;24.83;13.30;;;;;;;;;;5054801;28;20031;-41
2021/12/07 04:05:45;;;;;;;30.13;14.88;;;;;;;;;;5054425;28;20037;-41
2021/12/07 04:08:23;;;;;;;28.55;13.95;;;;;;;;;;5037886;28;20083;-42
2021/12/07 04:10:50;;;;;;;27.83;13.93;;;;;;;;;;5054385;28;20032;-42
2021/12/07 04:13:15;;;;;;;26.83;14.18;;;;;;;;;;5054421;28;20021;-42
2021/12/07 04:15:41;;;;;;;28.55;13.75;;;;;;;;;;5054160;28;20056;-41
2021/12/07 04:18:07;;;;;;;32.55;14.10;;;;;;;;;;5054134;28;20064;-40
2021/12/07 04:20:33;;;;;;;25.40;13.25;;;;;;;;;;5054373;28;20052;-41
2021/12/07 04:22:59;;;;;;;26.17;14.07;;;;;;;;;;5054166;28;20036;-40
2021/12/07 04:25:25;;;;;;;29.92;13.55;;;;;;;;;;5054265;28;20017;-41
2021/12/07 04:27:53;;;;;;;27.65;13.07;;;;;;;;;;5053925;28;20032;-42
2021/12/07 04:30:26;;;;;;;29.30;13.43;;;;;;;;;;5053939;28;20029;-41
2021/12/07 04:32:52;;;;;;;27.08;13.30;;;;;;;;;;5053751;28;20485;-41
2021/12/07 04:35:18;;;;;;;27.48;13.55;;;;;;;;;;5053846;28;20033;-42
2021/12/07 04:37:44;;;;;;;28.92;13.90;;;;;;;;;;5054250;28;20117;-40
2021/12/07 04:40:15;;;;;;;29.40;13.30;;;;;;;;;;5053843;28;20049;-40
2021/12/07 04:42:41;;;;;;;30.10;12.80;;;;;;;;;;5053844;28;20221;-40
2021/12/07 04:45:11;;;;;;;36.33;15.00;;;;;;;;;;5053725;28;20075;-40
2021/12/07 04:47:51;;;;;;;24.50;13.23;;;;;;;;;;5053692;28;20421;-40
2021/12/07 04:50:38;;;;;;;33.50;14.40;;;;;;;;;;5052934;28;20100;-40
2021/12/07 04:58:33;;;;;;;32.40;13.48;;;;;;;;;;5053779;28;20032;-42
2021/12/07 05:01:00;;;;;;;28.00;13.63;;;;;;;;;;5053487;28;20100;-40
2021/12/07 05:03:27;;;;;;;26.50;13.27;;;;;;;;;;5053655;28;20025;-42
2021/12/07 05:05:54;;;;;;;23.55;13.40;;;;;;;;;;5053570;28;20106;-41
2021/12/07 05:08:36;;;;;;;33.15;14.35;;;;;;;;;;5053579;28;20028;-43
2021/12/07 05:13:36;;;;;;;31.77;14.52;;;;;;;;;;5053214;28;20021;-42
2021/12/07 05:16:28;;;;;;;31.40;14.48;;;;;;;;;;5053033;28;20462;-41
2021/12/07 05:19:02;;;;;;;29.98;13.63;;;;;;;;;;5053381;28;20163;-40
2021/12/07 05:24:52;;;;;;;34.92;15.25;;;;;;;;;;5053321;28;20029;-42
2021/12/07 05:37:52;;;;;;;28.52;13.77;;;;;;;;;;5053090;28;20534;-41
2021/12/07 05:40:24;;;;;;;27.17;12.85;;;;;;;;;;5053021;28;20051;-42
2021/12/07 05:42:50;;;;;;;31.52;13.77;;;;;;;;;;5052974;28;20052;-41
2021/12/07 05:45:19;;;;;;;28.25;14.00;;;;;;;;;;5053002;28;20056;-43
2021/12/07 05:47:45;;;;;;;29.33;13.82;;;;;;;;;;5052750;28;20083;-43
2021/12/07 05:50:15;;;;;;;31.63;13.32;;;;;;;;;;5052677;28;20034;-42
2021/12/07 05:52:41;;;;;;;33.47;14.88;;;;;;;;;;5034554;28;20466;-42
2021/12/07 05:55:07;;;;;;;33.13;15.43;;;;;;;;;;5052567;28;20123;-42
2021/12/07 05:57:33;;;;;;;35.08;15.60;;;;;;;;;;5052666;28;20025;-42
2021/12/07 05:59:59;;;;;;;38.33;15.88;;;;;;;;;;5052307;28;20045;-41
2021/12/07 06:02:25;;;;;;;34.47;15.40;;;;;;;;;;5052275;28;20071;-41
2021/12/07 06:04:50;;;;;;;33.88;16.55;;;;;;;;;;5052275;28;20090;-41
2021/12/07 06:07:16;;;;;;;31.58;15.50;;;;;;;;;;5052641;28;20017;-40
2021/12/07 06:09:41;;;;;;;30.10;14.75;;;;;;;;;;5052512;28;20662;-41
2021/12/07 06:12:07;;;;;;;29.88;14.15;;;;;;;;;;5052324;28;20024;-42
2021/12/07 06:14:40;;;;;;;31.60;14.43;;;;;;;;;;5052295;28;20374;-41
2021/12/07 06:17:05;;;;;;;32.25;14.40;;;;;;;;;;5034395;28;20037;-41
2021/12/07 06:19:31;;;;;;;28.65;13.75;;;;;;;;;;5052466;28;20032;-40
2021/12/07 06:21:56;;;;;;;35.53;14.23;;;;;;;;;;5052364;28;20466;-41
2021/12/07 06:24:22;;;;;;;30.13;14.00;;;;;;;;;;5052200;28;20094;-40
2021/12/07 06:26:47;;;;;;;33.42;15.45;;;;;;;;;;5052376;28;20108;-41
2021/12/07 06:29:13;;;;;;;28.83;15.02;;;;;;;;;;5052045;28;20033;-42
2021/12/07 06:31:38;;;;;;;34.50;16.05;;;;;;;;;;5052029;28;20021;-41
2021/12/07 06:34:04;;;;;;;34.72;16.52;;;;;;;;;;5051628;28;20072;-40
2021/12/07 06:36:29;;;;;;;33.45;14.80;;;;;;;;;;5051524;28;20029;-40
2021/12/07 06:38:55;;;;;;;30.38;15.20;;;;;;;;;;5050137;28;20029;-40
2021/12/07 06:41:20;;;;;;;29.92;15.70;;;;;;;;;;5050520;28;20104;-40
2021/12/07 06:43:46;;;;;;;34.08;16.25;;;;;;;;;;5051709;28;20021;-40
2021/12/07 06:46:12;;;;;;;28.88;15.45;;;;;;;;;;5051809;28;20064;-41
2021/12/07 06:48:38;;;;;;;29.80;14.20;;;;;;;;;;5033907;28;20653;-41
2021/12/07 06:51:04;;;;;;;30.55;15.55;;;;;;;;;;5051545;28;20100;-41
2021/12/07 06:53:35;;;;;;;30.75;14.82;;;;;;;;;;5050688;28;20040;-40
2021/12/07 06:56:03;;;;;;;30.67;14.70;;;;;;;;;;5033473;28;20041;-40
2021/12/07 06:58:28;;;;;;;31.83;15.15;;;;;;;;;;5051530;28;20048;-40
2021/12/07 07:00:54;;;;;;;40.75;16.63;;;;;;;;;;5051194;28;20061;-40
2021/12/07 07:03:20;;;;;;;40.88;17.20;;;;;;;;;;5051604;28;20036;-40
2021/12/07 07:05:45;;;;;;;32.85;15.27;;;;;;;;;;5051897;28;20081;-40
2021/12/07 07:08:11;;;;;;;45.75;17.45;;;;;;;;;;5051700;28;20457;-41
2021/12/07 07:10:37;;;;;;;38.05;16.65;;;;;;;;;;5051504;28;20151;-43
2021/12/07 07:13:03;;;;;;;35.85;15.50;;;;;;;;;;5054033;28;20021;-41
2021/12/07 07:15:29;;;;;;;34.03;17.13;;;;;;;;;;5055577;28;20428;-41
2021/12/07 07:17:55;;;;;;;36.13;17.17;;;;;;;;;;5055540;28;20077;-42
2021/12/07 07:20:21;;;;;;;36.42;16.58;;;;;;;;;;5055428;28;20037;-41
2021/12/07 07:22:46;;;;;;;33.15;16.52;;;;;;;;;;5055189;28;20029;-41
2021/12/07 07:25:13;;;;;;;40.03;17.52;;;;;;;;;;5055449;28;20025;-40
2021/12/07 07:27:39;;;;;;;30.35;16.20;;;;;;;;;;5055392;28;20025;-40
2021/12/07 07:30:07;;;;;;;32.40;16.27;;;;;;;;;;5055080;28;20025;-40
2021/12/07 07:32:32;;;;;;;28.88;15.40;;;;;;;;;;5055049;28;20119;-42
2021/12/07 07:34:58;;;;;;;35.60;16.75;;;;;;;;;;5054784;28;20128;-40
2021/12/07 07:37:23;;;;;;;34.22;15.73;;;;;;;;;;5052457;28;20044;-42
2021/12/07 07:39:49;;;;;;;30.70;16.15;;;;;;;;;;5053301;28;20036;-43
2021/12/07 07:42:14;;;;;;;33.40;15.10;;;;;;;;;;5054182;28;20441;-41
2021/12/07 07:44:40;;;;;;;30.50;15.73;;;;;;;;;;5053577;28;20043;-40
2021/12/07 07:47:05;;;;;;;32.25;14.40;;;;;;;;;;5054889;28;20032;-41
2021/12/07 07:49:31;;;;;;;36.40;16.75;;;;;;;;;;5054649;28;20518;-41
2021/12/07 07:51:57;;;;;;;30.60;16.33;;;;;;;;;;5053889;28;20029;-40
2021/12/07 07:54:22;;;;;;;31.48;16.20;;;;;;;;;;5053407;28;20064;-39
2021/12/07 07:56:48;;;;;;;37.75;16.38;;;;;;;;;;5054109;28;20107;-40
2021/12/07 07:59:13;;;;;;;34.58;17.25;;;;;;;;;;5054243;28;20025;-40
2021/12/07 08:01:39;;;;;;;38.65;17.63;;;;;;;;;;5054472;28;20029;-40
2021/12/07 08:04:05;;;;;;;37.10;17.45;;;;;;;;;;5054365;28;20025;-42
2021/12/07 08:06:30;;;;;;;37.45;16.45;;;;;;;;;;5054322;28;20036;-43
2021/12/07 08:08:57;;;;;;;36.22;19.02;;;;;;;;;;5054753;28;20033;-40
2021/12/07 08:11:23;;;;;;;31.70;16.63;;;;;;;;;;5054615;28;20045;-41
2021/12/07 08:13:49;;;;;;;33.78;15.20;;;;;;;;;;5054234;28;20064;-41
2021/12/07 08:16:17;;;;;;;36.92;18.95;;;;;;;;;;5054434;28;20055;-40
2021/12/07 08:18:44;;;;;;;35.85;16.35;;;;;;;;;;5052441;28;20029;-46
2021/12/07 08:21:10;;;;;;;34.40;17.08;;;;;;;;;;5052658;28;20021;-51
2021/12/07 08:23:36;;;;;;;33.28;16.83;;;;;;;;;;5051375;28;20035;-40
2021/12/07 08:26:03;;;;;;;34.58;16.92;;;;;;;;;;5052426;28;20040;-42
2021/12/07 08:28:28;;;;;;;34.97;16.90;;;;;;;;;;5052000;28;20061;-40
2021/12/07 08:30:54;;;;;;;31.92;16.75;;;;;;;;;;5052185;28;20064;-46
2021/12/07 08:33:19;;;;;;;37.20;18.42;;;;;;;;;;5052189;28;20721;-45
2021/12/07 08:35:47;;;;;;;36.75;17.13;;;;;;;;;;5052433;28;20754;-41
2021/12/07 08:38:12;;;;;;;35.20;17.45;;;;;;;;;;5052180;28;20028;-48
2021/12/07 08:40:39;;;;;;;31.73;16.80;;;;;;;;;;5052514;28;20433;-41
2021/12/07 08:43:06;;;;;;;32.92;16.17;;;;;;;;;;5052165;28;20086;-44
2021/12/07 08:45:32;;;;;;;35.22;15.88;;;;;;;;;;5052205;28;20032;-44
2021/12/07 08:48:00;;;;;;;33.25;16.40;;;;;;;;;;5052422;28;20021;-41
2021/12/07 08:50:28;;;;;;;29.75;15.15;;;;;;;;;;5052003;28;20470;-42
2021/12/07 08:53:02;;;;;;;29.60;14.88;;;;;;;;;;5052019;28;20033;-44
2021/12/07 09:00:58;;;;;;;32.50;15.10;;;;;;;;;;5051381;28;20636;-42
2021/12/07 09:03:23;;;;;;;31.10;15.68;;;;;;;;;;5033895;28;20112;-42
2021/12/07 09:05:49;;;;;;;31.42;14.65;;;;;;;;;;5033817;28;20048;-50
2021/12/07 09:08:15;;;;;;;31.55;15.05;;;;;;;;;;5051551;28;20043;-45
2021/12/07 09:10:40;;;;;;;27.30;14.05;;;;;;;;;;5051881;28;20516;-42
2021/12/07 09:13:06;;;;;;;28.92;13.85;;;;;;;;;;5051646;28;20041;-45
2021/12/07 09:15:31;;;;;;;30.02;15.00;;;;;;;;;;5051402;28;20085;-43
2021/12/07 09:17:57;;;;;;;31.35;16.17;;;;;;;;;;5051363;28;20143;-50
2021/12/07 09:20:22;;;;;;;28.80;15.52;;;;;;;;;;5051529;28;20028;-45
2021/12/07 09:22:48;;;;;;;32.03;15.00;;;;;;;;;;5051725;28;20028;-43
2021/12/07 09:25:15;;;;;;;33.45;16.20;;;;;;;;;;5051393;28;20455;-41
2021/12/07 09:27:41;;;;;;;31.73;15.52;;;;;;;;;;5051186;28;20108;-41
2021/12/07 09:30:08;;;;;;;30.33;16.17;;;;;;;;;;5051132;28;20117;-44
2021/12/07 09:32:34;;;;;;;35.28;16.83;;;;;;;;;;5045128;28;20036;-46
2021/12/07 09:35:02;;;;;;;30.80;15.27;;;;;;;;;;5044532;28;20053;-45
2021/12/07 09:37:28;;;;;;;37.88;17.20;;;;;;;;;;5027498;28;20775;-42
2021/12/07 09:39:54;;;;;;;39.33;17.10;;;;;;;;;;5044367;28;20033;-44
2021/12/07 09:42:19;;;;;;;29.65;16.52;;;;;;;;;;5044893;28;20032;-41
2021/12/07 09:44:45;;;;;;;33.45;16.30;;;;;;;;;;5044557;28;20063;-44
2021/12/07 09:47:11;;;;;;;30.60;14.52;;;;;;;;;;5044923;28;20033;-43
2021/12/07 09:49:36;;;;;;;33.03;16.02;;;;;;;;;;5049834;28;20068;-42
2021/12/07 09:52:02;;;;;;;31.67;16.42;;;;;;;;;;5051373;28;20124;-43
2021/12/07 09:54:28;;;;;;;36.08;17.70;;;;;;;;;;5052294;28;20051;-44
2021/12/07 09:56:53;;;;;;;30.35;15.57;;;;;;;;;;5052738;28;20595;-44
2021/12/07 09:59:19;;;;;;;25.92;13.75;;;;;;;;;;5052254;28;20463;-44
2021/12/07 10:01:44;;;;;;;30.35;15.40;;;;;;;;;;5052303;28;20025;-41
2021/12/07 10:04:10;;;;;;;32.65;14.98;;;;;;;;;;5052407;28;20061;-43
2021/12/07 10:06:35;;;;;;;31.55;14.45;;;;;;;;;;5052163;28;20657;-41
2021/12/07 10:09:03;;;;;;;33.33;15.85;;;;;;;;;;5033782;28;20058;-41
2021/12/07 10:11:31;;;;;;;30.58;15.25;;;;;;;;;;5052325;28;20424;-41
2021/12/07 10:13:57;;;;;;;32.15;16.20;;;;;;;;;;5051060;28;20036;-42
2021/12/07 10:16:24;;;;;;;29.25;15.50;;;;;;;;;;5048772;28;20029;-41
2021/12/07 10:18:51;;;;;;;31.02;15.88;;;;;;;;;;5049109;28;20029;-44
2021/12/07 10:21:38;;;;;;;35.90;17.02;;;;;;;;;;5045761;28;20029;-40
2021/12/07 10:24:09;;;;;;;29.00;14.40;;;;;;;;;;5045504;28;20029;-43
2021/12/07 10:26:43;;;;;;;30.73;14.73;;;;;;;;;;5045190;28;20029;-41
2021/12/07 10:29:15;;;;;;;30.27;16.05;;;;;;;;;;5045595;28;20088;-41
2021/12/07 10:31:50;;;;;;;31.27;15.55;;;;;;;;;;5045575;28;20497;-41
2021/12/07 10:34:30;;;;;;;29.73;15.05;;;;;;;;;;5045512;28;20041;-42
2021/12/07 10:37:17;;;;;;;30.10;15.75;;;;;;;;;;5027679;28;20465;-41
2021/12/07 10:39:46;;;;;;;27.95;14.80;;;;;;;;;;5045548;28;20393;-42
2021/12/07 10:42:15;;;;;;;26.92;15.38;;;;;;;;;;5045641;28;20040;-41
2021/12/07 10:44:41;;;;;;;27.35;14.95;;;;;;;;;;5045368;28;20079;-42
2021/12/07 10:47:08;;;;;;;31.60;15.45;;;;;;;;;;5046865;28;20060;-42
2021/12/07 10:49:50;;;;;;;27.08;14.95;;;;;;;;;;5049641;28;20053;-45
2021/12/07 10:52:16;;;;;;;28.95;16.27;;;;;;;;;;5049791;28;20060;-41
2021/12/07 10:54:49;;;;;;;27.33;15.02;;;;;;;;;;5049673;28;20134;-45
2021/12/07 10:57:20;;;;;;;28.77;15.40;;;;;;;;;;5049300;28;20033;-44
2021/12/07 11:00:08;;;;;;;32.10;15.85;;;;;;;;;;5049370;28;20021;-45
2021/12/07 11:02:36;;;;;;;29.50;16.40;;;;;;;;;;5049463;28;20548;-43
2021/12/07 11:05:08;;;;;;;32.35;16.20;;;;;;;;;;5049007;28;20044;-48
2021/12/07 11:07:36;;;;;;;30.38;15.60;;;;;;;;;;5049429;28;20138;-48
2021/12/07 11:10:17;;;;;;;27.35;16.00;;;;;;;;;;5049069;28;20062;-48
2021/12/07 11:13:00;;;;;;;33.42;16.55;;;;;;;;;;5049116;28;20029;-46
2021/12/07 11:15:29;;;;;;;28.73;14.80;;;;;;;;;;5049284;28;20585;-42
2021/12/07 11:18:15;;;;;;;31.17;15.07;;;;;;;;;;5049203;28;20056;-46
2021/12/07 11:20:41;;;;;;;26.92;15.07;;;;;;;;;;5048761;28;20035;-40
2021/12/07 11:23:21;;;;;;;26.60;15.00;;;;;;;;;;5047545;28;20032;-43
2021/12/07 11:31:38;;;;;;;30.27;16.65;;;;;;;;;;5047872;28;20044;-40
2021/12/07 11:34:16;;;;;;;30.73;15.13;;;;;;;;;;5048016;28;20801;-40
2021/12/07 11:36:42;;;;;;;31.42;16.67;;;;;;;;;;5053725;28;20052;-39
2021/12/07 11:39:28;;;;;;;29.48;16.23;;;;;;;;;;5053716;28;20436;-40
2021/12/07 11:42:04;;;;;;;28.10;15.50;;;;;;;;;;5053319;28;20029;-40
2021/12/07 11:44:33;;;;;;;28.73;16.05;;;;;;;;;;5053614;28;20033;-40
2021/12/07 11:47:00;;;;;;;30.48;15.88;;;;;;;;;;5053320;28;20049;-40
2021/12/07 11:49:29;;;;;;;29.50;15.48;;;;;;;;;;5053360;28;20037;-40
2021/12/07 11:52:01;;;;;;;28.92;15.63;;;;;;;;;;5053318;28;20438;-39
2021/12/07 11:54:31;;;;;;;34.50;16.42;;;;;;;;;;5052634;28;20482;-41
2021/12/07 11:56:59;;;;;;;34.20;16.63;;;;;;;;;;5053361;28;20090;-42
2021/12/07 11:59:24;;;;;;;32.08;16.77;;;;;;;;;;5052882;28;20427;-45
2021/12/07 12:01:52;;;;;;;28.95;16.05;;;;;;;;;;5035092;28;20128;-46
2021/12/07 12:04:19;;;;;;;28.00;15.13;;;;;;;;;;5052737;28;20032;-42
2021/12/07 12:06:54;;;;;;;34.58;16.77;;;;;;;;;;5053110;28;20039;-44
2021/12/07 12:09:21;;;;;;;31.88;16.08;;;;;;;;;;5052805;28;20065;-43
2021/12/07 12:12:20;;;;;;;32.25;15.63;;;;;;;;;;5052786;28;20108;-40
2021/12/07 12:15:01;;;;;;;30.42;15.02;;;;;;;;;;5052574;28;20036;-39
2021/12/07 12:18:03;;;;;;;30.13;15.15;;;;;;;;;;5053009;28;20032;-44
2021/12/07 12:20:56;;;;;;;34.72;15.70;;;;;;;;;;5052368;28;20465;-38
2021/12/07 12:23:52;;;;;;;28.63;16.48;;;;;;;;;;5052928;28;20025;-46
2021/12/07 12:26:25;;;;;;;32.75;16.52;;;;;;;;;;5052757;28;20025;-43
2021/12/07 12:28:53;;;;;;;27.27;14.27;;;;;;;;;;5052369;28;20025;-49
2021/12/07 12:31:50;;;;;;;28.73;16.30;;;;;;;;;;5052257;28;20544;-47
2021/12/07 12:34:19;;;;;;;31.33;16.42;;;;;;;;;;5052337;28;20049;-48
2021/12/07 12:37:01;;;;;;;32.40;16.90;;;;;;;;;;5052223;28;20075;-45
2021/12/07 12:39:52;;;;;;;30.05;15.52;;;;;;;;;;5052339;28;20231;-44
2021/12/07 12:42:26;;;;;;;38.00;16.38;;;;;;;;;;5052131;28;20082;-41
2021/12/07 12:45:09;;;;;;;28.65;15.40;;;;;;;;;;5052027;28;20393;-42
2021/12/07 12:47:39;;;;;;;29.38;15.50;;;;;;;;;;5052116;28;20065;-42
2021/12/07 12:50:17;;;;;;;32.63;17.15;;;;;;;;;;5051964;28;20490;-39
2021/12/07 12:52:47;;;;;;;31.27;15.90;;;;;;;;;;5051919;28;20119;-39
2021/12/07 12:55:29;;;;;;;31.95;17.17;;;;;;;;;;5052182;28;20036;-45
2021/12/07 12:57:55;;;;;;;32.97;16.83;;;;;;;;;;5051828;28;20497;-38
2021/12/07 13:00:21;;;;;;;28.75;15.00;;;;;;;;;;5051943;28;20032;-44
2021/12/07 13:02:55;;;;;;;30.70;16.83;;;;;;;;;;5052128;28;20024;-48
2021/12/07 13:05:34;;;;;;;29.23;15.75;;;;;;;;;;5051806;28;20029;-40
2021/12/07 13:08:17;;;;;;;31.55;15.85;;;;;;;;;;5051739;28;20029;-46
2021/12/07 13:11:04;;;;;;;34.50;17.90;;;;;;;;;;5051106;28;20107;-43
2021/12/07 13:13:30;;;;;;;29.48;15.32;;;;;;;;;;5051914;28;20025;-42
2021/12/07 13:15:56;;;;;;;28.90;15.25;;;;;;;;;;5053035;28;20033;-46
2021/12/07 13:18:27;;;;;;;31.52;15.35;;;;;;;;;;5053404;28;20028;-39
2021/12/07 13:20:53;;;;;;;32.80;16.50;;;;;;;;;;5052732;28;20053;-44
2021/12/07 13:23:18;;;;;;;33.90;17.25;;;;;;;;;;5051746;28;20092;-43
2021/12/07 13:25:48;;;;;;;30.98;16.33;;;;;;;;;;5052677;28;20500;-41
2021/12/07 13:28:21;;;;;;;38.88;17.02;;;;;;;;;;5052810;28;20029;-46
2021/12/07 13:30:53;;;;;;;31.45;16.30;;;;;;;;;;5052931;28;20036;-39
2021/12/07 13:33:38;;;;;;;34.63;15.55;;;;;;;;;;5052555;28;20565;-50
2021/12/07 13:36:25;;;;;;;31.95;15.27;;;;;;;;;;5052893;28;20032;-48
2021/12/07 13:38:51;;;;;;;26.90;14.85;;;;;;;;;;5053005;28;20029;-41
2021/12/07 13:41:16;;;;;;;42.42;14.50;;;;;;;;;;5052680;28;20515;-50
2021/12/07 13:43:45;;;;;;;39.10;16.10;;;;;;;;;;5052841;28;20036;-43
2021/12/07 13:46:25;;;;;;;35.17;16.50;;;;;;;;;;5052892;28;20386;-47
2021/12/07 13:49:03;;;;;;;35.65;16.00;;;;;;;;;;5034673;28;20032;-40
2021/12/07 13:51:28;;;;;;;29.77;15.02;;;;;;;;;;5052466;28;20036;-43
2021/12/07 13:53:54;;;;;;;32.40;16.27;;;;;;;;;;5052804;28;20021;-41
2021/12/07 13:56:21;;;;;;;32.03;16.73;;;;;;;;;;5052564;28;20470;-49
2021/12/07 13:58:54;;;;;;;30.10;15.57;;;;;;;;;;5052640;28;20033;-51
2021/12/07 14:01:21;;;;;;;37.08;16.75;;;;;;;;;;5052376;28;20029;-46
2021/12/07 14:03:47;;;;;;;32.63;17.08;;;;;;;;;;5052317;28;20025;-47
2021/12/07 14:06:13;;;;;;;30.42;15.60;;;;;;;;;;5052330;28;20025;-45
2021/12/07 14:08:38;;;;;;;28.77;14.60;;;;;;;;;;5052215;28;20059;-42
2021/12/07 14:11:04;;;;;;;34.03;15.85;;;;;;;;;;5052171;28;20052;-39
2021/12/07 14:13:30;;;;;;;30.00;15.93;;;;;;;;;;5052188;28;20413;-38
2021/12/07 14:15:55;;;;;;;32.15;14.82;;;;;;;;;;5052533;28;20108;-41
2021/12/07 14:18:23;;;;;;;33.05;16.83;;;;;;;;;;5052165;28;20025;-44
2021/12/07 14:20:57;;;;;;;34.85;16.02;;;;;;;;;;5051948;28;20158;-46
2021/12/07 14:23:34;;;;;;;36.05;16.45;;;;;;;;;;5051661;28;20381;-40
2021/12/07 14:26:00;;;;;;;39.10;17.30;;;;;;;;;;5051621;28;20033;-39
2021/12/07 14:28:30;;;;;;;34.30;15.35;;;;;;;;;;5052046;28;20033;-41
2021/12/07 14:31:11;;;;;;;38.28;16.70;;;;;;;;;;5052033;28;20021;-42
2021/12/07 14:33:58;;;;;;;37.47;16.67;;;;;;;;;;5052002;28;20094;-40
2021/12/07 14:36:52;;;;;;;38.33;18.27;;;;;;;;;;5051917;28;20033;-40
2021/12/07 14:39:39;;;;;;;37.97;17.45;;;;;;;;;;5033646;28;20025;-50
2021/12/07 14:42:11;;;;;;;39.88;18.42;;;;;;;;;;5051919;28;20017;-45
2021/12/07 14:44:46;;;;;;;36.47;17.90;;;;;;;;;;5051765;28;20063;-46
2021/12/07 14:47:12;;;;;;;38.88;17.50;;;;;;;;;;5052117;28;20147;-42
2021/12/07 14:49:41;;;;;;;47.85;18.80;;;;;;;;;;5051772;28;20517;-46
2021/12/07 14:52:11;;;;;;;42.30;17.92;;;;;;;;;;5052121;28;20481;-44
2021/12/07 14:54:37;;;;;;;71.65;22.23;;;;;;;;;;5034447;28;20021;-42
2021/12/07 14:57:03;;;;;;;48.85;20.08;;;;;;;;;;5052113;28;20493;-48
2021/12/07 14:59:29;;;;;;;40.35;19.63;;;;;;;;;;5052031;28;20029;-43
2021/12/07 15:01:57;;;;;;;41.38;19.60;;;;;;;;;;5051403;28;20021;-46
2021/12/07 15:04:24;;;;;;;41.50;18.88;;;;;;;;;;5051421;28;20029;-40
2021/12/07 15:07:00;;;;;;;42.00;18.63;;;;;;;;;;5051707;28;20021;-42
2021/12/07 15:09:27;;;;;;;39.97;19.13;;;;;;;;;;5033625;28;20025;-39
2021/12/07 15:11:53;;;;;;;44.65;19.73;;;;;;;;;;5049576;28;20033;-43
2021/12/07 15:14:23;;;;;;;41.95;20.13;;;;;;;;;;5049576;28;20040;-45
2021/12/07 15:16:53;;;;;;;46.92;21.67;;;;;;;;;;5050135;28;20086;-40
2021/12/07 15:19:19;;;;;;;45.55;21.38;;;;;;;;;;5050393;28;20075;-38
2021/12/07 15:21:46;;;;;;;51.10;21.23;;;;;;;;;;5050182;28;20033;-41
2021/12/07 15:24:14;;;;;;;47.42;20.75;;;;;;;;;;5050389;28;20049;-45
2021/12/07 15:26:41;;;;;;;39.90;20.05;;;;;;;;;;5049517;28;20029;-41
2021/12/07 15:29:10;;;;;;;44.03;21.15;;;;;;;;;;5051671;28;20029;-38
2021/12/07 15:31:39;;;;;;;46.07;21.33;;;;;;;;;;5051531;28;20037;-38
2021/12/07 15:34:06;;;;;;;43.42;20.00;;;;;;;;;;5053801;28;20379;-40
2021/12/07 15:36:36;;;;;;;45.33;20.98;;;;;;;;;;5055072;28;20063;-39
2021/12/07 15:39:29;;;;;;;50.33;22.17;;;;;;;;;;5055314;28;20175;-40
2021/12/07 15:42:04;;;;;;;50.78;21.60;;;;;;;;;;5052317;28;20090;-39
2021/12/07 15:44:39;;;;;;;44.88;19.30;;;;;;;;;;5055152;28;20067;-39
2021/12/07 15:47:09;;;;;;;46.00;19.63;;;;;;;;;;5054528;28;20021;-39
2021/12/07 15:49:41;;;;;;;47.10;20.48;;;;;;;;;;5054814;28;20025;-39
2021/12/07 15:52:14;;;;;;;58.72;22.85;;;;;;;;;;5054698;28;20029;-39
2021/12/07 15:54:40;;;;;;;51.00;21.92;;;;;;;;;;5054696;28;20054;-39
2021/12/07 15:57:08;;;;;;;52.55;22.10;;;;;;;;;;5054610;28;20029;-39